createdAt,value
2019-04-14T00:02:22.821Z,14.00
2019-04-14T00:04:52.941Z,15.00
2019-04-14T00:07:23.084Z,12.00
2019-04-14T00:09:52.646Z,14.00
2019-04-14T00:12:23.073Z,14.00
2019-04-14T00:14:53.290Z,15.00
2019-04-14T00:17:23.594Z,15.50
2019-04-14T00:19:54.925Z,14.00
2019-04-14T00:22:26.557Z,15.50
2019-04-14T00:24:55.351Z,17.50
2019-04-14T00:27:24.479Z,13.50
2019-04-14T00:29:54.577Z,12.00
2019-04-14T00:32:24.728Z,14.00
2019-04-14T00:35:02.205Z,14.00
2019-04-14T00:37:36.471Z,13.00
2019-04-14T00:40:10.482Z,16.50
2019-04-14T00:42:47.364Z,12.50
2019-04-14T00:45:48.223Z,13.00
2019-04-14T00:48:18.986Z,14.00
2019-04-14T00:50:47.410Z,12.50
2019-04-14T00:53:16.628Z,14.00
2019-04-14T00:55:46.609Z,15.50
2019-04-14T00:58:16.985Z,12.50
2019-04-14T01:00:47.227Z,12.50
2019-04-14T01:03:17.535Z,15.00
2019-04-14T01:05:46.715Z,12.00
2019-04-14T01:08:16.348Z,16.00
2019-04-14T01:10:45.458Z,16.00
2019-04-14T01:13:15.666Z,14.50
2019-04-14T01:15:51.217Z,15.50
2019-04-14T01:18:16.763Z,14.00
2019-04-14T01:20:47.014Z,14.00
2019-04-14T01:23:17.124Z,13.00
2019-04-14T01:25:46.314Z,13.50
2019-04-14T01:28:15.847Z,15.00
2019-04-14T01:30:45.859Z,14.50
2019-04-14T01:33:16.320Z,11.50
2019-04-14T01:35:46.611Z,13.00
2019-04-14T01:38:16.864Z,13.50
2019-04-14T01:40:47.271Z,11.50
2019-04-14T01:43:16.703Z,12.00
2019-04-14T01:45:58.105Z,16.00
2019-04-14T01:48:17.127Z,12.50
2019-04-14T01:50:56.725Z,10.50
2019-04-14T01:53:44.564Z,14.50
2019-04-14T01:56:38.634Z,18.00
2019-04-14T02:01:44.054Z,15.00
2019-04-14T02:04:13.857Z,18.50
2019-04-14T02:06:44.129Z,13.00
2019-04-14T02:09:14.089Z,15.50
2019-04-14T02:11:44.599Z,14.50
2019-04-14T02:14:14.760Z,13.50
2019-04-14T02:16:50.050Z,15.50
2019-04-14T02:19:15.368Z,13.50
2019-04-14T02:21:45.842Z,14.50
2019-04-14T02:24:15.694Z,18.00
2019-04-14T02:26:45.828Z,16.00
2019-04-14T02:29:15.018Z,20.50
2019-04-14T02:32:11.204Z,15.50
2019-04-14T02:34:49.552Z,16.50
2019-04-14T02:37:26.318Z,16.00
2019-04-14T02:39:48.209Z,18.50
2019-04-14T02:44:44.253Z,18.00
2019-04-14T02:47:36.674Z,16.00
2019-04-14T02:52:20.690Z,16.00
2019-04-14T02:59:51.205Z,16.50
2019-04-14T03:04:51.042Z,20.00
2019-04-14T03:07:28.207Z,11.50
2019-04-14T03:12:25.030Z,18.50
2019-04-14T03:14:57.059Z,18.50
2019-04-14T03:20:33.884Z,14.00
2019-04-14T03:23:05.050Z,15.50
2019-04-14T03:26:00.983Z,16.00
2019-04-14T03:28:38.427Z,15.00
2019-04-14T03:34:12.824Z,17.00
2019-04-14T03:36:58.207Z,14.00
2019-04-14T03:38:50.409Z,19.50
2019-04-14T03:43:39.481Z,15.50
2019-04-14T03:46:23.641Z,19.50
2019-04-14T03:51:16.697Z,16.50
2019-04-14T03:53:44.047Z,20.00
2019-04-14T03:56:27.462Z,18.50
2019-04-14T03:58:57.605Z,20.50
2019-04-14T04:01:27.962Z,17.50
2019-04-14T04:03:58.514Z,14.50
2019-04-14T04:06:27.583Z,20.00
2019-04-14T04:08:57.469Z,16.00
2019-04-14T04:11:27.922Z,16.50
2019-04-14T04:13:57.004Z,16.00
2019-04-14T04:16:42.301Z,18.50
2019-04-14T04:19:19.637Z,17.00
2019-04-14T04:24:56.465Z,16.00
2019-04-14T04:27:54.766Z,17.50
2019-04-14T04:30:34.066Z,15.50
2019-04-14T04:33:13.317Z,14.00
2019-04-14T04:35:50.074Z,18.00
2019-04-14T04:38:31.313Z,19.00
2019-04-14T04:41:01.499Z,17.00
2019-04-14T04:43:31.847Z,22.00
2019-04-14T04:46:01.128Z,22.00
2019-04-14T04:48:30.711Z,19.00
2019-04-14T04:51:00.686Z,17.00
2019-04-14T04:53:30.925Z,17.00
2019-04-14T04:55:59.995Z,21.00
2019-04-14T04:58:28.977Z,21.00
2019-04-14T05:03:27.488Z,23.00
2019-04-14T05:07:05.587Z,19.50
2019-04-14T05:10:00.248Z,19.00
2019-04-14T05:12:37.002Z,18.00
2019-04-14T05:15:25.355Z,18.00
2019-04-14T05:17:54.447Z,20.00
2019-04-14T05:20:23.467Z,17.50
2019-04-14T05:25:23.219Z,22.00
2019-04-14T05:27:53.706Z,23.00
2019-04-14T05:30:24.042Z,21.50
2019-04-14T05:32:54.378Z,20.00
2019-04-14T05:35:29.665Z,22.50
2019-04-14T05:37:59.664Z,12.00
2019-04-14T05:40:29.912Z,22.00
2019-04-14T05:43:00.156Z,19.00
2019-04-14T05:45:30.545Z,15.00
2019-04-14T05:48:00.978Z,21.00
2019-04-14T05:50:31.258Z,20.50
2019-04-14T05:53:00.404Z,19.00
2019-04-14T05:55:31.224Z,17.00
2019-04-14T05:58:01.336Z,19.00
2019-04-14T06:00:30.570Z,21.50
2019-04-14T06:02:59.619Z,18.00
2019-04-14T06:05:29.639Z,21.00
2019-04-14T06:08:00.061Z,21.00
2019-04-14T06:10:29.116Z,18.50
2019-04-14T06:12:58.075Z,22.00
2019-04-14T06:15:27.250Z,23.50
2019-04-14T06:17:56.320Z,24.50
2019-04-14T06:20:25.321Z,19.00
2019-04-14T06:22:54.374Z,23.50
2019-04-14T06:25:25.614Z,25.00
2019-04-14T06:27:54.612Z,18.50
2019-04-14T06:30:43.577Z,24.00
2019-04-14T06:33:23.860Z,25.00
2019-04-14T06:36:20.842Z,21.00
2019-04-14T06:38:53.262Z,21.50
2019-04-14T06:41:22.351Z,19.50
2019-04-14T06:43:52.704Z,21.00
2019-04-14T06:46:21.721Z,26.00
2019-04-14T06:48:50.741Z,20.50
2019-04-14T06:51:19.781Z,23.50
2019-04-14T06:53:48.854Z,23.00
2019-04-14T06:56:17.884Z,27.00
2019-04-14T06:58:46.942Z,21.50
2019-04-14T07:01:15.949Z,22.00
2019-04-14T07:03:45.014Z,27.50
2019-04-14T07:06:14.132Z,19.00
2019-04-14T07:08:43.159Z,24.00
2019-04-14T07:11:12.161Z,22.00
2019-04-14T07:13:41.216Z,23.00
2019-04-14T07:16:10.236Z,18.00
2019-04-14T07:18:39.255Z,21.00
2019-04-14T07:21:12.130Z,26.00
2019-04-14T07:23:50.132Z,24.50
2019-04-14T07:26:19.259Z,13.50
2019-04-14T07:28:56.505Z,24.50
2019-04-14T07:31:56.558Z,23.00
2019-04-14T07:34:39.575Z,26.00
2019-04-14T07:37:26.974Z,26.50
2019-04-14T07:40:03.011Z,24.00
2019-04-14T07:42:54.060Z,26.00
2019-04-14T07:45:48.830Z,32.50
2019-04-14T07:48:34.303Z,22.50
2019-04-14T07:51:16.619Z,22.50
2019-04-14T07:54:07.640Z,26.50
2019-04-14T07:56:52.661Z,27.00
2019-04-14T07:59:27.205Z,29.00
2019-04-14T08:02:18.198Z,25.00
2019-04-14T08:04:53.645Z,21.00
2019-04-14T08:07:22.657Z,28.00
2019-04-14T08:09:51.646Z,19.00
2019-04-14T08:12:20.655Z,26.50
2019-04-14T08:14:49.683Z,27.50
2019-04-14T08:17:18.662Z,26.00
2019-04-14T08:19:47.702Z,27.50
2019-04-14T08:25:07.158Z,26.00
2019-04-14T08:27:40.231Z,28.00
2019-04-14T08:30:09.608Z,26.50
2019-04-14T08:32:39.457Z,22.50
2019-04-14T08:35:08.614Z,23.50
2019-04-14T08:37:38.285Z,28.00
2019-04-14T08:40:08.469Z,30.00
2019-04-14T08:42:58.614Z,29.50
2019-04-14T08:45:35.401Z,27.50
2019-04-14T08:48:22.303Z,21.50
2019-04-14T08:51:07.126Z,23.00
2019-04-14T08:53:49.473Z,25.00
2019-04-14T08:56:46.591Z,26.00
2019-04-14T08:59:33.421Z,28.00
2019-04-14T09:02:08.736Z,26.50
2019-04-14T09:04:42.162Z,28.50
2019-04-14T09:07:24.759Z,28.00
2019-04-14T09:09:57.021Z,31.50
2019-04-14T09:12:28.657Z,22.50
2019-04-14T09:14:57.821Z,22.00
2019-04-14T09:17:30.939Z,29.00
2019-04-14T09:19:59.921Z,26.00
2019-04-14T09:22:28.944Z,30.00
2019-04-14T09:24:58.026Z,30.50
2019-04-14T09:27:27.115Z,25.00
2019-04-14T09:29:56.210Z,25.75
2019-04-14T09:32:26.415Z,24.25
2019-04-14T09:34:55.422Z,30.75
2019-04-14T09:37:24.433Z,27.00
2019-04-14T09:39:53.715Z,25.50
2019-04-14T09:42:22.694Z,27.25
2019-04-14T09:44:51.697Z,27.25
2019-04-14T09:47:20.723Z,26.75
2019-04-14T09:49:49.890Z,31.75
2019-04-14T09:52:18.974Z,34.75
2019-04-14T09:54:47.992Z,24.50
2019-04-14T09:57:16.985Z,25.50
2019-04-14T09:59:46.070Z,27.25
2019-04-14T10:02:15.163Z,31.50
2019-04-14T10:04:44.261Z,26.00
2019-04-14T10:07:13.412Z,26.25
2019-04-14T10:09:42.559Z,23.50
2019-04-14T10:12:11.545Z,27.00
2019-04-14T10:14:40.641Z,35.75
2019-04-14T10:17:09.704Z,33.75
2019-04-14T10:19:38.767Z,28.75
2019-04-14T10:22:07.865Z,25.25
2019-04-14T10:24:36.863Z,24.25
2019-04-14T10:27:06.019Z,25.25
2019-04-14T10:29:35.024Z,28.75
2019-04-14T10:32:04.123Z,23.00
2019-04-14T10:34:35.391Z,28.00
2019-04-14T10:37:04.540Z,25.00
2019-04-14T10:39:33.531Z,22.25
2019-04-14T10:42:02.540Z,25.25
2019-04-14T10:44:31.648Z,19.00
2019-04-14T10:47:00.706Z,25.75
2019-04-14T10:49:29.702Z,24.25
2019-04-14T10:51:58.760Z,26.25
2019-04-14T10:54:27.756Z,24.00
2019-04-14T10:56:56.761Z,19.50
2019-04-14T10:59:27.012Z,27.00
2019-04-14T11:01:56.156Z,21.25
2019-04-14T11:04:25.138Z,17.00
2019-04-14T11:07:03.453Z,20.00
2019-04-14T11:09:32.457Z,26.75
2019-04-14T11:12:04.407Z,22.75
2019-04-14T11:14:33.453Z,18.50
2019-04-14T11:17:02.508Z,20.00
2019-04-14T11:19:31.511Z,21.00
2019-04-14T11:22:03.531Z,23.75
2019-04-14T11:24:32.531Z,25.50
2019-04-14T11:27:01.607Z,21.00
2019-04-14T11:29:30.720Z,21.25
2019-04-14T11:32:24.502Z,24.75
2019-04-14T11:35:21.662Z,20.25
2019-04-14T11:37:58.974Z,23.00
2019-04-14T11:40:34.434Z,19.00
2019-04-14T11:43:02.352Z,20.75
2019-04-14T11:45:31.436Z,16.00
2019-04-14T11:48:00.452Z,22.25
2019-04-14T11:50:29.739Z,25.25
2019-04-14T11:53:00.814Z,20.25
2019-04-14T11:55:29.887Z,20.50
2019-04-14T11:58:00.542Z,13.50
2019-04-14T12:00:48.568Z,20.50
2019-04-14T12:03:51.623Z,19.75
2019-04-14T12:06:31.621Z,22.00
2019-04-14T12:09:19.536Z,18.50
2019-04-14T12:11:48.583Z,21.75
2019-04-14T12:14:17.676Z,21.50
2019-04-14T12:16:46.845Z,22.75
2019-04-14T12:19:15.867Z,23.75
2019-04-14T12:21:46.209Z,22.00
2019-04-14T12:24:15.223Z,22.00
2019-04-14T12:26:44.224Z,21.75
2019-04-14T12:29:14.102Z,20.50
2019-04-14T12:31:44.133Z,17.50
2019-04-14T12:34:18.071Z,21.75
2019-04-14T12:36:46.081Z,20.50
2019-04-14T12:39:23.097Z,16.00
2019-04-14T12:42:11.879Z,15.75
2019-04-14T12:45:02.993Z,18.00
2019-04-14T12:47:51.010Z,22.75
2019-04-14T12:50:27.188Z,23.75
2019-04-14T12:52:56.563Z,17.75
2019-04-14T12:55:25.578Z,22.00
2019-04-14T12:57:57.393Z,18.25
2019-04-14T13:00:47.901Z,21.75
2019-04-14T13:03:16.987Z,18.75
2019-04-14T13:05:46.112Z,19.75
2019-04-14T13:08:15.124Z,19.75
2019-04-14T13:10:44.182Z,18.25
2019-04-14T13:13:13.227Z,16.25
2019-04-14T13:15:42.332Z,20.00
2019-04-14T13:18:11.670Z,18.75
2019-04-14T13:20:40.806Z,19.50
2019-04-14T13:23:09.781Z,22.00
2019-04-14T13:25:38.858Z,18.75
2019-04-14T13:28:07.923Z,17.00
2019-04-14T13:30:39.843Z,16.00
2019-04-14T13:35:37.025Z,15.50
2019-04-14T13:38:06.141Z,18.00
2019-04-14T13:40:35.223Z,21.50
2019-04-14T13:43:04.505Z,20.50
2019-04-14T13:45:33.523Z,21.25
2019-04-14T13:48:02.601Z,16.50
2019-04-14T13:50:31.761Z,20.00
2019-04-14T13:53:00.751Z,19.75
2019-04-14T13:55:29.726Z,23.00
2019-04-14T13:57:58.794Z,23.25
2019-04-14T14:00:27.871Z,19.00
2019-04-14T14:02:56.864Z,19.00
2019-04-14T14:05:25.924Z,17.50
2019-04-14T14:07:55.005Z,20.25
2019-04-14T14:10:24.126Z,20.50
2019-04-14T14:13:15.210Z,17.25
2019-04-14T14:16:02.110Z,19.00
2019-04-14T14:18:44.767Z,20.50
2019-04-14T14:21:31.976Z,16.00
2019-04-14T14:24:29.211Z,17.00
2019-04-14T14:26:58.336Z,16.50
2019-04-14T14:29:27.518Z,21.00
2019-04-14T14:31:57.222Z,18.75
2019-04-14T14:34:26.226Z,18.50
2019-04-14T14:36:55.334Z,20.75
2019-04-14T14:39:24.380Z,21.00
2019-04-14T14:41:53.481Z,16.25
2019-04-14T14:44:24.130Z,17.75
2019-04-14T14:47:14.844Z,18.75
2019-04-14T14:50:01.608Z,22.00
2019-04-14T14:52:31.460Z,19.50
2019-04-14T14:55:00.516Z,20.50
2019-04-14T14:57:29.692Z,20.00
2019-04-14T14:59:58.710Z,16.00
2019-04-14T15:02:27.713Z,16.00
2019-04-14T15:04:56.760Z,12.50
2019-04-14T15:07:25.760Z,20.50
2019-04-14T15:09:54.832Z,19.25
2019-04-14T15:12:23.880Z,16.50
2019-04-14T15:14:52.890Z,23.50
2019-04-14T15:17:21.940Z,19.75
2019-04-14T15:22:19.285Z,19.25
2019-04-14T15:24:48.286Z,18.50
2019-04-14T15:27:17.302Z,18.00
2019-04-14T15:29:46.298Z,31.75
2019-04-14T15:32:15.383Z,18.25
2019-04-14T15:34:44.352Z,16.50
2019-04-14T15:37:13.380Z,21.00
2019-04-14T15:39:42.491Z,19.75
2019-04-14T15:42:11.529Z,22.75
2019-04-14T15:44:40.576Z,19.50
2019-04-14T15:47:09.643Z,23.25
2019-04-14T15:49:38.633Z,20.00
2019-04-14T15:52:07.750Z,21.25
2019-04-14T15:54:36.748Z,20.00
2019-04-14T15:57:27.971Z,22.50
2019-04-14T16:00:17.250Z,23.75
2019-04-14T16:03:14.354Z,20.50
2019-04-14T16:06:03.238Z,24.00
2019-04-14T16:08:37.351Z,20.50
2019-04-14T16:11:21.929Z,12.50
2019-04-14T16:14:25.171Z,16.50
2019-04-14T16:17:18.041Z,20.75
2019-04-14T16:19:51.092Z,18.25
2019-04-14T16:22:20.512Z,20.75
2019-04-14T16:24:49.591Z,17.00
2019-04-14T16:27:31.284Z,18.00
2019-04-14T16:30:19.287Z,22.25
2019-04-14T16:33:11.189Z,21.75
2019-04-14T16:35:41.627Z,19.00
2019-04-14T16:38:10.727Z,20.25
2019-04-14T16:40:39.926Z,21.00
2019-04-14T16:43:11.086Z,20.75
2019-04-14T16:45:40.166Z,21.00
2019-04-14T16:48:09.377Z,21.75
2019-04-14T16:50:39.896Z,19.00
2019-04-14T16:53:16.594Z,20.25
2019-04-14T16:56:02.469Z,19.00
2019-04-14T16:58:35.786Z,21.50
2019-04-14T17:01:08.104Z,21.00
2019-04-14T17:03:38.813Z,19.00
2019-04-14T17:06:08.003Z,13.75
2019-04-14T17:08:37.169Z,26.25
2019-04-14T17:11:06.588Z,26.00
2019-04-14T17:13:38.750Z,22.25
2019-04-14T17:16:17.300Z,17.00
2019-04-14T17:19:06.777Z,24.00
2019-04-14T17:21:46.354Z,24.75
2019-04-14T17:24:37.506Z,20.50
2019-04-14T17:27:14.530Z,24.00
2019-04-14T17:30:02.736Z,23.25
2019-04-14T17:32:54.270Z,21.50
2019-04-14T17:35:42.588Z,21.00
2019-04-14T17:38:28.128Z,18.00
2019-04-14T17:41:15.156Z,21.00
2019-04-14T17:44:01.975Z,22.50
2019-04-14T17:46:50.001Z,20.00
2019-04-14T17:49:44.089Z,20.25
2019-04-14T17:52:37.399Z,21.75
2019-04-14T17:55:12.533Z,23.00
2019-04-14T17:57:59.204Z,20.75
2019-04-14T18:00:54.822Z,24.00
2019-04-14T18:03:48.827Z,20.75
2019-04-14T18:06:26.632Z,24.00
2019-04-14T18:09:20.658Z,23.25
2019-04-14T18:12:00.465Z,23.75
2019-04-14T18:14:38.500Z,21.25
2019-04-14T18:17:32.842Z,27.25
2019-04-14T18:20:20.841Z,22.50
2019-04-14T18:22:49.834Z,25.75
2019-04-14T18:25:18.885Z,27.75
2019-04-14T18:28:10.373Z,23.00
2019-04-14T18:30:45.815Z,24.00
2019-04-14T18:33:32.211Z,23.50
2019-04-14T18:36:22.982Z,24.00
2019-04-14T18:39:20.089Z,22.50
2019-04-14T18:41:58.660Z,24.00
2019-04-14T18:44:45.778Z,20.75
2019-04-14T18:47:33.875Z,25.50
2019-04-14T18:50:13.852Z,25.25
2019-04-14T18:53:04.660Z,22.75
2019-04-14T18:56:10.753Z,22.25
2019-04-14T18:59:03.295Z,25.00
2019-04-14T19:01:38.073Z,25.75
2019-04-14T19:04:07.117Z,22.75
2019-04-14T19:06:36.214Z,24.25
2019-04-14T19:09:07.465Z,22.25
2019-04-14T19:11:55.957Z,26.75
2019-04-14T19:14:28.850Z,26.25
2019-04-14T19:17:06.098Z,23.50
2019-04-14T19:19:36.678Z,23.50
2019-04-14T19:22:05.837Z,23.00
2019-04-14T19:24:35.136Z,24.50
2019-04-14T19:27:06.522Z,25.50
2019-04-14T19:29:35.546Z,24.50
2019-04-14T19:32:04.998Z,21.00
2019-04-14T19:34:34.110Z,25.50
2019-04-14T19:37:03.105Z,25.00
2019-04-14T19:39:32.184Z,23.00
2019-04-14T19:42:01.246Z,28.00
2019-04-14T19:44:30.254Z,26.50
2019-04-14T19:47:03.196Z,25.25
2019-04-14T19:49:32.200Z,27.75
2019-04-14T19:52:01.286Z,22.75
2019-04-14T19:54:30.318Z,21.75
2019-04-14T19:56:59.309Z,28.25
2019-04-14T19:59:28.351Z,24.25
2019-04-14T20:01:57.395Z,24.25
2019-04-14T20:04:26.719Z,25.25
2019-04-14T20:06:55.785Z,27.75
2019-04-14T20:09:30.880Z,21.25
2019-04-14T20:12:00.061Z,27.25
2019-04-14T20:14:30.644Z,24.00
2019-04-14T20:17:21.028Z,25.75
2019-04-14T20:20:01.389Z,23.00
2019-04-14T20:22:37.099Z,24.00
2019-04-14T20:25:17.110Z,22.00
2019-04-14T20:28:20.651Z,24.00
2019-04-14T20:30:53.911Z,24.50
2019-04-14T20:33:22.884Z,21.50
2019-04-14T20:35:51.994Z,26.50
2019-04-14T20:38:20.993Z,22.00
2019-04-14T20:40:51.693Z,22.75
2019-04-14T20:43:20.792Z,24.25
2019-04-14T20:45:49.881Z,24.25
2019-04-14T20:48:19.007Z,23.75
2019-04-14T20:50:48.098Z,21.75
2019-04-14T20:53:17.125Z,23.75
2019-04-14T20:55:47.655Z,23.25
2019-04-14T20:58:18.397Z,27.75
2019-04-14T21:00:47.558Z,25.25
2019-04-14T21:03:36.298Z,25.25
2019-04-14T21:06:17.667Z,25.75
2019-04-14T21:09:17.739Z,24.25
2019-04-14T21:12:20.787Z,22.50
2019-04-14T21:15:14.570Z,23.50
2019-04-14T21:18:05.679Z,24.00
2019-04-14T21:20:53.807Z,26.00
2019-04-14T21:23:59.992Z,23.50
2019-04-14T21:26:46.270Z,26.50
2019-04-14T21:29:33.269Z,29.50
2019-04-14T21:32:08.360Z,24.25
2019-04-14T21:35:09.759Z,27.25
2019-04-14T21:37:51.441Z,29.50
2019-04-14T21:40:27.658Z,27.75
2019-04-14T21:42:56.709Z,24.25
2019-04-14T21:45:26.293Z,26.75
2019-04-14T21:47:55.456Z,27.25
2019-04-14T21:50:24.520Z,30.25
2019-04-14T21:52:53.483Z,28.75
2019-04-14T21:55:22.562Z,29.75
2019-04-14T21:57:56.998Z,32.25
2019-04-14T22:01:14.622Z,30.25
2019-04-14T22:03:50.912Z,29.50
2019-04-14T22:06:25.667Z,28.75
2019-04-14T22:08:54.717Z,30.75
2019-04-14T22:11:25.321Z,30.75
2019-04-14T22:13:55.771Z,29.75
2019-04-14T22:16:24.839Z,30.75
2019-04-14T22:18:56.232Z,29.25
2019-04-14T22:21:25.251Z,28.25
2019-04-14T22:24:01.101Z,31.75
2019-04-14T22:26:26.371Z,29.75
2019-04-14T22:28:55.760Z,27.25
2019-04-14T22:31:24.727Z,29.25
2019-04-14T22:33:53.913Z,29.75
2019-04-14T22:36:22.910Z,25.75
2019-04-14T22:38:51.887Z,27.75
2019-04-14T22:41:20.987Z,31.75
2019-04-14T22:43:51.332Z,27.25
2019-04-14T22:46:20.368Z,27.25
2019-04-14T22:48:49.367Z,28.75
2019-04-14T22:51:18.621Z,31.25
2019-04-14T22:53:47.594Z,30.75
2019-04-14T22:56:16.638Z,31.75
2019-04-14T22:58:45.682Z,30.25
2019-04-14T23:01:24.732Z,32.25
2019-04-14T23:04:25.087Z,28.50
2019-04-14T23:07:15.811Z,29.50
2019-04-14T23:10:09.927Z,30.00
2019-04-14T23:12:44.378Z,31.00
2019-04-14T23:15:35.548Z,29.50
2019-04-14T23:18:27.532Z,30.00
2019-04-14T23:21:20.692Z,30.50
2019-04-14T23:24:08.125Z,28.00
2019-04-14T23:26:37.186Z,31.50
2019-04-14T23:29:06.173Z,29.50
2019-04-14T23:31:35.305Z,30.00
2019-04-14T23:34:04.414Z,32.00
2019-04-14T23:36:33.396Z,31.50
2019-04-14T23:39:02.772Z,30.50
2019-04-14T23:41:31.830Z,30.50
2019-04-14T23:44:00.830Z,31.00
2019-04-14T23:46:29.853Z,31.00
2019-04-14T23:48:58.943Z,30.00
2019-04-14T23:51:28.075Z,32.00
2019-04-14T23:53:57.087Z,27.50
2019-04-14T23:56:26.149Z,30.00
2019-04-14T23:58:55.238Z,30.00
